Adams Center, New York
Current Conditions -  °F | °C
As of 9:56 PM on Wednesday 26 Nov 2014 (Local Time) from KART Reporting Station
Overcast Overcast  
Wind Chill: 20°   Ceiling: 5500
Heat Index: 29°   Visibility: 10mi
Dew Point: 22°   Wind: 10mph
Humidity: 75%   Direction: 40°NE
Pressure: 30.03"   Gusts: NA
Location:  43.86°N, 76°W
Report Text: KART 270256Z AUTO 04009KT 10SM OVC055 M02/M06 A3003 RMK AO2 SLP173 60000 T10171056 58021
Loading
Personal Weather Stations






























Interactive Weather Map New forecast layout! Learn more

10-Day Weather Forecast

Advertisements
Track Severe Weather on mobile